createdAt,value
2018-10-17T00:02:22.179Z,56.60
2018-10-17T00:04:50.985Z,56.47
2018-10-17T00:07:19.542Z,56.60
2018-10-17T00:09:48.349Z,57.20
2018-10-17T00:12:16.828Z,59.27
2018-10-17T00:14:45.365Z,57.00
2018-10-17T00:17:14.480Z,57.30
2018-10-17T00:19:43.081Z,56.40
2018-10-17T00:22:11.593Z,57.13
2018-10-17T00:24:40.060Z,56.80
2018-10-17T00:27:08.553Z,60.07
2018-10-17T00:29:37.201Z,56.33
2018-10-17T00:32:05.856Z,57.33
2018-10-17T00:34:34.377Z,57.63
2018-10-17T00:37:02.892Z,57.93
2018-10-17T00:39:31.433Z,57.07
2018-10-17T00:41:59.891Z,55.83
2018-10-17T00:44:28.820Z,55.53
2018-10-17T00:46:57.387Z,58.07
2018-10-17T00:49:26.186Z,56.67
2018-10-17T00:51:54.652Z,55.27
2018-10-17T00:54:23.303Z,55.53
2018-10-17T00:56:51.760Z,53.93
2018-10-17T00:59:20.297Z,54.20
2018-10-17T01:01:48.749Z,53.23
2018-10-17T01:04:17.497Z,53.97
2018-10-17T01:06:46.561Z,54.37
2018-10-17T01:09:15.685Z,53.47
2018-10-17T01:11:44.175Z,52.40
2018-10-17T01:14:12.709Z,54.20
2018-10-17T01:16:41.204Z,53.27
2018-10-17T01:19:09.873Z,51.43
2018-10-17T01:21:38.407Z,52.97
2018-10-17T01:24:07.026Z,52.97
2018-10-17T01:26:35.592Z,54.17
2018-10-17T01:29:04.275Z,53.80
2018-10-17T01:31:32.763Z,55.40
2018-10-17T01:34:01.405Z,54.73
2018-10-17T01:36:29.861Z,53.63
2018-10-17T01:38:58.579Z,54.53
2018-10-17T01:41:27.041Z,57.00
2018-10-17T01:43:55.668Z,56.50
2018-10-17T01:46:24.125Z,54.07
2018-10-17T01:48:52.832Z,54.30
2018-10-17T01:51:21.333Z,55.63
2018-10-17T01:53:49.868Z,53.57
2018-10-17T01:56:18.625Z,55.47
2018-10-17T01:58:47.232Z,54.87
2018-10-17T02:01:15.727Z,55.47
2018-10-17T02:03:44.510Z,55.43
2018-10-17T02:06:13.024Z,53.63
2018-10-17T02:08:41.492Z,53.33
2018-10-17T02:11:09.998Z,55.80
2018-10-17T02:13:38.754Z,56.27
2018-10-17T02:16:07.414Z,57.73
2018-10-17T02:18:36.121Z,56.80
2018-10-17T02:21:05.096Z,57.80
2018-10-17T02:23:33.897Z,59.10
2018-10-17T02:26:02.568Z,57.93
2018-10-17T02:28:31.054Z,54.47
2018-10-17T02:30:59.598Z,56.30
2018-10-17T02:33:28.330Z,56.80
2018-10-17T02:35:56.806Z,58.83
2018-10-17T02:38:25.504Z,58.27
2018-10-17T02:40:54.042Z,57.27
2018-10-17T02:43:22.529Z,56.43
2018-10-17T02:45:51.104Z,57.50
2018-10-17T02:48:19.690Z,56.27
2018-10-17T02:50:48.174Z,56.83
2018-10-17T02:53:16.972Z,55.33
2018-10-17T02:55:45.364Z,54.73
2018-10-17T02:58:13.981Z,53.70
2018-10-17T03:00:42.598Z,57.57
2018-10-17T03:03:11.097Z,57.13
2018-10-17T03:05:39.599Z,58.30
2018-10-17T03:08:08.509Z,55.00
2018-10-17T03:10:36.968Z,55.53
2018-10-17T03:13:05.589Z,55.97
2018-10-17T03:15:34.056Z,56.37
2018-10-17T03:18:02.620Z,53.03
2018-10-17T03:20:31.157Z,54.77
2018-10-17T03:22:59.825Z,54.83
2018-10-17T03:25:28.325Z,54.60
2018-10-17T03:27:57.143Z,55.53
2018-10-17T03:30:25.669Z,55.50
2018-10-17T03:32:54.346Z,53.87
2018-10-17T03:35:22.813Z,53.60
2018-10-17T03:37:51.379Z,54.17
2018-10-17T03:40:19.865Z,54.10
2018-10-17T03:42:48.479Z,54.50
2018-10-17T03:45:16.979Z,54.90
2018-10-17T03:47:45.473Z,53.50
2018-10-17T03:50:14.009Z,54.70
2018-10-17T03:52:42.493Z,52.13
2018-10-17T03:55:11.018Z,51.20
2018-10-17T03:57:39.447Z,52.77
2018-10-17T04:00:08.571Z,51.40
2018-10-17T04:02:37.435Z,50.47
2018-10-17T04:05:06.513Z,50.07
2018-10-17T04:07:35.643Z,51.43
2018-10-17T04:10:04.219Z,50.23
2018-10-17T04:12:33.013Z,50.43
2018-10-17T04:15:01.589Z,52.97
2018-10-17T04:17:30.213Z,50.10
2018-10-17T04:19:58.710Z,52.10
2018-10-17T04:22:27.302Z,51.00
2018-10-17T04:24:55.745Z,49.43
2018-10-17T04:27:24.252Z,49.83
2018-10-17T04:29:52.726Z,49.13
2018-10-17T04:32:21.342Z,47.97
2018-10-17T04:34:49.820Z,47.87
2018-10-17T04:37:18.347Z,47.27
2018-10-17T04:39:46.860Z,48.23
2018-10-17T04:42:15.631Z,47.30
2018-10-17T04:44:44.105Z,49.17
2018-10-17T04:47:12.954Z,50.73
2018-10-17T04:49:41.357Z,51.67
2018-10-17T04:52:10.024Z,51.37
2018-10-17T04:54:38.611Z,53.10
2018-10-17T04:57:07.148Z,56.13
2018-10-17T04:59:35.635Z,54.47
2018-10-17T05:02:04.185Z,52.30
2018-10-17T05:04:32.659Z,52.70
2018-10-17T05:07:01.439Z,54.03
2018-10-17T05:09:29.968Z,51.37
2018-10-17T05:11:58.565Z,51.50
2018-10-17T05:14:27.043Z,53.00
2018-10-17T05:16:55.585Z,51.83
2018-10-17T05:19:24.238Z,51.30
2018-10-17T05:21:52.943Z,52.90
2018-10-17T05:24:21.417Z,50.93
2018-10-17T05:26:50.117Z,49.93
2018-10-17T05:29:18.648Z,50.73
2018-10-17T05:31:47.217Z,51.13
2018-10-17T05:34:15.735Z,49.33
2018-10-17T05:36:44.327Z,48.00
2018-10-17T05:39:13.238Z,48.07
2018-10-17T05:41:41.905Z,45.97
2018-10-17T05:44:10.395Z,46.93
2018-10-17T05:46:38.875Z,46.33
2018-10-17T05:49:07.406Z,47.67
2018-10-17T05:51:36.133Z,45.33
2018-10-17T05:54:04.665Z,46.13
2018-10-17T05:56:33.177Z,44.23
2018-10-17T05:59:01.677Z,45.23
2018-10-17T06:01:30.257Z,43.73
2018-10-17T06:03:58.701Z,44.67
2018-10-17T06:06:27.225Z,46.13
2018-10-17T06:08:55.733Z,46.43
2018-10-17T06:11:24.510Z,44.73
2018-10-17T06:13:53.137Z,44.93
2018-10-17T06:16:21.703Z,47.38
2018-10-17T06:18:51.185Z,42.38
2018-10-17T06:21:19.704Z,44.63
2018-10-17T06:23:48.191Z,44.03
2018-10-17T06:26:16.729Z,45.70
2018-10-17T06:28:45.217Z,43.47
2018-10-17T06:31:14.381Z,44.83
2018-10-17T06:33:42.893Z,43.90
2018-10-17T06:36:11.494Z,43.53
2018-10-17T06:38:40.090Z,43.83
2018-10-17T06:41:08.886Z,44.13
2018-10-17T06:43:37.664Z,42.37
2018-10-17T06:46:06.229Z,45.00
2018-10-17T06:48:35.257Z,43.97
2018-10-17T06:51:03.979Z,44.90
2018-10-17T06:53:32.460Z,43.57
2018-10-17T06:56:01.308Z,44.80
2018-10-17T06:58:29.841Z,42.97
2018-10-17T07:00:58.695Z,43.97
2018-10-17T07:03:27.172Z,43.67
2018-10-17T07:05:55.910Z,43.87
2018-10-17T07:08:24.552Z,42.67
2018-10-17T07:10:53.492Z,44.63
2018-10-17T07:13:22.256Z,42.47
2018-10-17T07:15:50.812Z,43.63
2018-10-17T07:18:19.328Z,41.83
2018-10-17T07:20:48.338Z,40.17
2018-10-17T07:23:16.853Z,40.73
2018-10-17T07:25:45.386Z,40.57
2018-10-17T07:28:13.971Z,38.47
2018-10-17T07:30:42.675Z,36.70
2018-10-17T07:33:11.316Z,37.43
2018-10-17T07:35:40.211Z,36.13
2018-10-17T07:38:08.860Z,37.00
2018-10-17T07:40:37.616Z,37.63
2018-10-17T07:43:06.349Z,35.83
2018-10-17T07:45:34.972Z,35.63
2018-10-17T07:48:03.746Z,33.67
2018-10-17T07:50:32.350Z,34.57
2018-10-17T07:53:00.902Z,34.93
2018-10-17T07:55:29.650Z,35.33
2018-10-17T07:57:58.184Z,38.07
2018-10-17T08:00:27.082Z,35.37
2018-10-17T08:02:55.631Z,36.17
2018-10-17T08:05:24.406Z,33.77
2018-10-17T08:07:52.890Z,35.40
2018-10-17T08:10:21.408Z,31.70
2018-10-17T08:12:49.906Z,31.07
2018-10-17T08:15:18.715Z,28.63
2018-10-17T08:17:47.290Z,26.83
2018-10-17T08:20:15.792Z,27.27
2018-10-17T08:22:44.350Z,27.53
2018-10-17T08:25:13.400Z,28.43
2018-10-17T08:27:42.768Z,27.07
2018-10-17T08:30:11.716Z,26.93
2018-10-17T08:32:40.637Z,27.63
2018-10-17T08:35:09.416Z,27.10
2018-10-17T08:37:38.346Z,28.47
2018-10-17T08:40:07.329Z,27.80
2018-10-17T08:42:35.908Z,27.50
2018-10-17T08:45:04.876Z,28.87
2018-10-17T08:47:33.544Z,28.17
2018-10-17T08:50:02.115Z,28.07
2018-10-17T08:52:30.699Z,26.37
2018-10-17T08:54:59.467Z,26.83
2018-10-17T08:57:27.996Z,27.60
2018-10-17T08:59:56.569Z,27.23
2018-10-17T09:02:25.129Z,26.80
2018-10-17T09:04:53.652Z,25.17
2018-10-17T09:07:22.188Z,23.27
2018-10-17T09:09:50.771Z,23.23
2018-10-17T09:12:19.360Z,24.10
2018-10-17T09:14:48.007Z,24.73
2018-10-17T09:17:16.612Z,24.77
2018-10-17T09:19:45.372Z,23.33
2018-10-17T09:22:13.970Z,24.73
2018-10-17T09:24:42.286Z,24.17
2018-10-17T09:27:10.836Z,25.33
2018-10-17T09:29:39.524Z,23.73
2018-10-17T09:32:08.156Z,22.83
2018-10-17T09:34:36.813Z,22.33
2018-10-17T09:37:05.479Z,22.83
2018-10-17T09:39:34.077Z,22.47
2018-10-17T09:42:02.564Z,24.03
2018-10-17T09:44:31.398Z,23.80
2018-10-17T09:46:59.872Z,23.93
2018-10-17T09:49:28.373Z,24.93
2018-10-17T09:51:56.958Z,24.50
2018-10-17T09:54:25.446Z,24.50
2018-10-17T09:56:54.612Z,27.20
2018-10-17T09:59:23.120Z,28.80
2018-10-17T10:01:52.696Z,28.67
2018-10-17T10:04:21.625Z,28.90
2018-10-17T10:06:50.095Z,29.10
2018-10-17T10:09:18.628Z,28.60
2018-10-17T10:11:47.143Z,26.80
2018-10-17T10:14:15.716Z,26.17
2018-10-17T10:16:44.373Z,25.53
2018-10-17T10:19:13.130Z,25.90
2018-10-17T10:21:41.673Z,25.27
2018-10-17T10:24:10.575Z,23.50
2018-10-17T10:26:39.055Z,23.27
2018-10-17T10:29:07.555Z,22.67
2018-10-17T10:31:36.122Z,20.50
2018-10-17T10:34:04.649Z,20.77
2018-10-17T10:36:33.145Z,19.60
2018-10-17T10:39:01.900Z,20.37
2018-10-17T10:41:30.561Z,18.83
2018-10-17T10:43:59.795Z,18.87
2018-10-17T10:46:28.427Z,18.83
2018-10-17T10:48:56.936Z,18.23
2018-10-17T10:51:25.424Z,17.57
2018-10-17T10:53:54.344Z,17.80
2018-10-17T10:56:22.819Z,17.53
2018-10-17T10:58:51.561Z,18.03
2018-10-17T11:01:20.045Z,17.67
2018-10-17T11:03:48.597Z,17.47
2018-10-17T11:06:17.098Z,17.33
2018-10-17T11:08:45.918Z,16.43
2018-10-17T11:11:15.329Z,15.27
2018-10-17T11:13:43.692Z,14.70
2018-10-17T11:16:12.187Z,13.63
2018-10-17T11:18:40.874Z,14.37
2018-10-17T11:21:09.525Z,14.50
2018-10-17T11:23:38.354Z,14.80
2018-10-17T11:26:06.825Z,16.47
2018-10-17T11:28:35.497Z,16.13
2018-10-17T11:31:04.082Z,15.67
2018-10-17T11:33:33.290Z,15.50
2018-10-17T11:36:01.793Z,16.53
2018-10-17T11:38:30.523Z,15.80
2018-10-17T11:40:59.225Z,14.73
2018-10-17T11:43:27.730Z,14.17
2018-10-17T11:45:56.235Z,14.00
2018-10-17T11:48:24.739Z,14.13
2018-10-17T11:50:53.225Z,14.13
2018-10-17T11:53:21.751Z,13.80
2018-10-17T11:55:50.332Z,13.43
2018-10-17T11:58:18.903Z,13.57
2018-10-17T12:00:47.395Z,14.03
2018-10-17T12:03:16.024Z,13.20
2018-10-17T12:05:44.691Z,13.60
2018-10-17T12:08:13.105Z,12.73
2018-10-17T12:10:41.590Z,12.40
2018-10-17T12:13:10.107Z,13.30
2018-10-17T12:15:42.064Z,12.90
2018-10-17T12:18:11.302Z,12.53
2018-10-17T12:20:39.670Z,12.58
2018-10-17T12:23:08.456Z,13.13
2018-10-17T12:25:36.996Z,11.83
2018-10-17T12:28:05.969Z,12.05
2018-10-17T12:30:34.443Z,12.37
2018-10-17T12:33:03.106Z,11.43
2018-10-17T12:35:31.552Z,12.03
2018-10-17T12:38:00.130Z,12.07
2018-10-17T12:40:28.832Z,13.15
2018-10-17T12:42:57.288Z,12.20
2018-10-17T12:45:25.910Z,11.55
2018-10-17T12:47:54.418Z,10.88
2018-10-17T12:50:23.013Z,11.75
2018-10-17T12:52:51.777Z,11.63
2018-10-17T12:55:20.148Z,11.43
2018-10-17T12:57:48.677Z,10.93
2018-10-17T13:00:17.195Z,10.82
2018-10-17T13:02:45.869Z,11.00
2018-10-17T13:05:14.521Z,12.25
2018-10-17T13:07:43.145Z,12.05
2018-10-17T13:10:12.332Z,11.05
2018-10-17T13:12:41.367Z,11.00
2018-10-17T13:15:12.468Z,11.90
2018-10-17T13:17:41.581Z,11.25
2018-10-17T13:20:10.103Z,11.33
2018-10-17T13:22:38.615Z,11.68
2018-10-17T13:25:07.844Z,12.10
2018-10-17T13:27:36.403Z,12.55
2018-10-17T13:30:05.446Z,13.03
2018-10-17T13:32:34.049Z,13.10
2018-10-17T13:35:02.587Z,13.48
2018-10-17T13:37:31.123Z,13.08
2018-10-17T13:39:59.706Z,11.63
2018-10-17T13:42:28.219Z,11.73
2018-10-17T13:44:56.687Z,11.87
2018-10-17T13:47:25.407Z,11.83
2018-10-17T13:49:54.513Z,11.87
2018-10-17T13:52:23.501Z,11.30
2018-10-17T13:54:52.084Z,11.47
2018-10-17T13:57:20.814Z,11.53
2018-10-17T13:59:49.533Z,11.17
2018-10-17T14:02:18.256Z,12.30
2018-10-17T14:04:46.720Z,11.50
2018-10-17T14:07:15.277Z,11.37
2018-10-17T14:09:43.798Z,12.03
2018-10-17T14:12:12.462Z,12.50
2018-10-17T14:14:40.873Z,12.00
2018-10-17T14:17:09.783Z,13.00
2018-10-17T14:19:38.351Z,13.67
2018-10-17T14:22:08.245Z,13.37
2018-10-17T14:24:36.750Z,13.13
2018-10-17T14:27:05.872Z,12.00
2018-10-17T14:29:34.544Z,10.67
2018-10-17T14:32:03.077Z,11.27
2018-10-17T14:34:31.576Z,12.57
2018-10-17T14:37:00.373Z,12.07
2018-10-17T14:39:28.978Z,13.07
2018-10-17T14:41:57.795Z,11.57
2018-10-17T14:44:26.270Z,12.03
2018-10-17T14:46:54.962Z,10.83
2018-10-17T14:49:23.408Z,11.90
2018-10-17T14:51:52.078Z,12.13
2018-10-17T14:54:20.676Z,11.57
2018-10-17T14:56:49.230Z,11.73
2018-10-17T14:59:17.739Z,11.43
2018-10-17T15:01:46.266Z,11.00
2018-10-17T15:04:14.869Z,10.60
2018-10-17T15:06:43.601Z,11.17
2018-10-17T15:09:12.145Z,10.73
2018-10-17T15:11:41.164Z,11.33
2018-10-17T15:14:09.694Z,11.77
2018-10-17T15:16:38.731Z,11.80
2018-10-17T15:19:07.253Z,11.47
2018-10-17T15:21:35.938Z,10.73
2018-10-17T15:24:04.804Z,11.60
2018-10-17T15:26:33.517Z,11.23
2018-10-17T15:29:02.038Z,11.17
2018-10-17T15:31:30.784Z,12.27
2018-10-17T15:33:59.091Z,13.57
2018-10-17T15:36:28.083Z,13.53
2018-10-17T15:38:56.594Z,15.23
2018-10-17T15:41:25.100Z,16.33
2018-10-17T15:43:53.837Z,19.10
2018-10-17T15:46:22.212Z,16.70
2018-10-17T15:48:50.735Z,17.13
2018-10-17T15:51:19.375Z,17.97
2018-10-17T15:53:47.878Z,19.10
2018-10-17T15:56:16.642Z,19.03
2018-10-17T15:58:45.278Z,21.37
2018-10-17T16:01:14.060Z,19.73
2018-10-17T16:03:42.553Z,20.43
2018-10-17T16:06:11.260Z,17.30
2018-10-17T16:08:39.868Z,21.37
2018-10-17T16:11:08.460Z,20.87
2018-10-17T16:13:37.056Z,21.83
2018-10-17T16:16:05.680Z,22.30
2018-10-17T16:18:34.297Z,21.77
2018-10-17T16:21:02.833Z,21.53
2018-10-17T16:23:31.485Z,33.67
2018-10-17T16:26:00.331Z,27.60
2018-10-17T16:28:28.989Z,26.63
2018-10-17T16:30:57.600Z,26.23
2018-10-17T16:33:26.280Z,26.70
2018-10-17T16:35:54.823Z,24.63
2018-10-17T16:38:23.392Z,25.80
2018-10-17T16:40:51.928Z,23.80
2018-10-17T16:43:20.564Z,21.73
2018-10-17T16:45:49.270Z,21.47
2018-10-17T16:48:17.860Z,24.63
2018-10-17T16:50:46.646Z,26.67
2018-10-17T16:53:15.766Z,26.50
2018-10-17T16:55:44.302Z,23.03
2018-10-17T16:58:12.878Z,25.30
2018-10-17T17:00:41.339Z,24.47
2018-10-17T17:03:09.895Z,23.33
2018-10-17T17:05:38.338Z,22.40
2018-10-17T17:08:07.187Z,22.30
2018-10-17T17:10:35.734Z,22.17
2018-10-17T17:13:04.261Z,22.33
2018-10-17T17:15:32.863Z,22.93
2018-10-17T17:18:01.483Z,24.17
2018-10-17T17:20:30.499Z,23.97
2018-10-17T17:22:59.105Z,30.37
2018-10-17T17:25:27.654Z,29.90
2018-10-17T17:27:56.129Z,23.57
2018-10-17T17:30:25.316Z,31.37
2018-10-17T17:32:53.813Z,30.80
2018-10-17T17:37:51.696Z,40.50
2018-10-17T17:40:20.312Z,40.57
2018-10-17T17:42:48.827Z,40.37
2018-10-17T17:45:17.392Z,39.07
2018-10-17T17:47:45.887Z,38.87
2018-10-17T17:50:14.606Z,38.53
2018-10-17T17:55:23.586Z,39.43
2018-10-17T17:57:52.101Z,36.93
2018-10-17T18:00:20.674Z,38.17
2018-10-17T18:02:49.194Z,41.03
2018-10-17T18:05:18.112Z,41.17
2018-10-17T18:07:46.709Z,44.13
2018-10-17T18:10:15.275Z,113.37
2018-10-17T18:12:43.909Z,49.77
2018-10-17T18:15:12.758Z,46.27
2018-10-17T18:17:41.578Z,87.43
2018-10-17T18:20:10.288Z,88.77
2018-10-17T18:22:38.846Z,72.77
2018-10-17T18:25:12.546Z,60.77
2018-10-17T18:27:42.753Z,56.30
2018-10-17T18:30:15.816Z,128.60
2018-10-17T18:32:50.053Z,109.30
2018-10-17T18:35:23.020Z,77.80
2018-10-17T18:37:57.617Z,65.87
2018-10-17T18:40:32.150Z,61.67
2018-10-17T18:43:07.094Z,54.10
2018-10-17T18:45:46.456Z,54.70
2018-10-17T18:48:51.675Z,53.33
2018-10-17T18:51:54.887Z,52.57
2018-10-17T18:57:40.257Z,49.10
2018-10-17T19:00:47.043Z,49.57
2018-10-17T19:03:48.452Z,49.87
2018-10-17T19:06:50.141Z,47.20
2018-10-17T19:09:54.567Z,49.67
2018-10-17T19:12:59.399Z,49.53
2018-10-17T19:16:08.019Z,47.83
2018-10-17T19:19:11.489Z,50.53
2018-10-17T19:22:09.906Z,49.07
2018-10-17T19:25:07.807Z,47.57
2018-10-17T19:28:06.145Z,48.10
2018-10-17T19:31:04.914Z,47.37
2018-10-17T19:34:03.638Z,48.47
2018-10-17T19:37:01.872Z,50.67
2018-10-17T19:39:59.831Z,49.30
2018-10-17T19:42:57.851Z,49.67
2018-10-17T19:45:56.358Z,50.03
2018-10-17T19:48:54.452Z,50.30
2018-10-17T19:51:52.375Z,50.27
2018-10-17T19:54:50.580Z,48.27
2018-10-17T19:57:48.881Z,47.23
2018-10-17T20:00:47.037Z,49.43
2018-10-17T20:03:45.597Z,49.80
2018-10-17T20:06:44.340Z,49.33
2018-10-17T20:09:42.493Z,47.37
2018-10-17T20:12:41.582Z,48.43
2018-10-17T20:15:39.720Z,45.93
2018-10-17T20:18:37.682Z,45.17
2018-10-17T20:21:35.928Z,47.10
2018-10-17T20:24:34.002Z,46.10
2018-10-17T20:27:32.668Z,48.83
2018-10-17T20:30:31.201Z,47.97
2018-10-17T20:33:29.337Z,47.70
2018-10-17T20:36:27.364Z,46.63
2018-10-17T20:39:25.893Z,48.83
2018-10-17T20:42:24.694Z,50.60
2018-10-17T20:45:23.697Z,51.90
2018-10-17T20:48:21.653Z,49.63
2018-10-17T20:51:19.580Z,52.70
2018-10-17T20:54:17.731Z,52.40
2018-10-17T20:57:16.078Z,55.27
2018-10-17T21:00:14.609Z,53.00
2018-10-17T21:03:12.601Z,54.17
2018-10-17T21:06:11.381Z,57.63
2018-10-17T21:09:09.615Z,56.27
2018-10-17T21:12:08.135Z,59.60
2018-10-17T21:15:06.259Z,55.13
2018-10-17T21:18:04.324Z,55.90
2018-10-17T21:21:02.951Z,57.47
2018-10-17T21:24:01.640Z,57.03
2018-10-17T21:27:00.116Z,55.43
2018-10-17T21:29:58.907Z,56.27
2018-10-17T21:32:56.795Z,56.93
2018-10-17T21:35:54.679Z,61.13
2018-10-17T21:38:52.766Z,64.23
2018-10-17T21:41:51.233Z,61.83
2018-10-17T21:44:49.381Z,64.00
2018-10-17T21:47:47.604Z,67.23
2018-10-17T21:50:45.744Z,63.67
2018-10-17T21:53:43.737Z,64.47
2018-10-17T21:56:43.015Z,64.47
2018-10-17T21:59:41.847Z,63.27
2018-10-17T22:02:40.300Z,63.90
2018-10-17T22:05:38.279Z,63.57
2018-10-17T22:08:36.908Z,64.33
2018-10-17T22:11:35.483Z,65.47
2018-10-17T22:14:33.814Z,65.13
2018-10-17T22:17:36.330Z,68.43
2018-10-17T22:20:34.608Z,69.70
2018-10-17T22:23:32.876Z,68.63
2018-10-17T22:26:31.298Z,68.87
2018-10-17T22:29:29.700Z,72.33
2018-10-17T22:32:28.250Z,69.77
2018-10-17T22:35:26.096Z,68.43
2018-10-17T22:38:30.158Z,71.43
2018-10-17T22:41:28.444Z,71.73
2018-10-17T22:44:27.684Z,69.80
2018-10-17T22:47:26.510Z,70.10
2018-10-17T22:50:25.316Z,67.30
2018-10-17T22:53:23.960Z,67.83
2018-10-17T22:56:21.860Z,69.23
2018-10-17T22:59:21.173Z,69.47
2018-10-17T23:02:19.717Z,68.07
2018-10-17T23:05:17.608Z,68.77
2018-10-17T23:08:16.956Z,67.10
2018-10-17T23:11:15.425Z,67.37
2018-10-17T23:14:13.776Z,63.93
2018-10-17T23:17:11.667Z,65.80
2018-10-17T23:20:10.649Z,64.60
2018-10-17T23:23:08.547Z,66.27
2018-10-17T23:26:07.427Z,63.50
2018-10-17T23:29:06.246Z,62.10
2018-10-17T23:32:04.921Z,62.80
2018-10-17T23:35:03.692Z,63.30
2018-10-17T23:38:02.088Z,65.63
2018-10-17T23:41:00.454Z,64.43
2018-10-17T23:43:58.944Z,62.53
2018-10-17T23:46:57.620Z,61.83
2018-10-17T23:49:56.835Z,62.40
2018-10-17T23:52:55.712Z,62.93
2018-10-17T23:55:53.907Z,60.93
2018-10-17T23:58:52.291Z,61.43
